Time;durP1;ratioP1;P1;durP2;ratioP2;P2;SDS_P1;SDS_P2;PMS_P1;PMS_P2;Temp;Humidity;BMP_temperature;BMP_pressure;BME280_temperature;BME280_humidity;BME280_pressure;Samples;Min_cycle;Max_cycle;Signal;HPM_P1;HPM_P2
2021/06/15 00:01:40;;;;;;;1.05;0.70;;;25.40;41.30;;;;;;5048571;28;20053;-59
2021/06/15 00:04:07;;;;;;;0.95;0.80;;;25.40;41.40;;;;;;5048408;28;20084;-58
2021/06/15 00:06:34;;;;;;;0.82;0.82;;;25.40;41.40;;;;;;5048580;28;20053;-58
2021/06/15 00:09:02;;;;;;;0.82;0.82;;;25.30;41.30;;;;;;5048181;28;20045;-59
2021/06/15 00:11:29;;;;;;;1.00;0.70;;;25.30;41.30;;;;;;5048090;28;20502;-59
2021/06/15 00:13:56;;;;;;;1.45;0.90;;;25.30;41.30;;;;;;5048349;28;20059;-58
2021/06/15 00:16:24;;;;;;;0.63;0.63;;;25.30;41.40;;;;;;5047564;28;20060;-58
2021/06/15 00:18:51;;;;;;;0.68;0.68;;;25.30;41.40;;;;;;5048734;28;20075;-58
2021/06/15 00:21:18;;;;;;;1.02;0.80;;;25.30;41.40;;;;;;5048016;28;20099;-58
2021/06/15 00:23:45;;;;;;;0.70;0.70;;;25.30;41.40;;;;;;5048059;28;20075;-58
2021/06/15 00:26:13;;;;;;;1.05;0.88;;;25.30;41.40;;;;;;5048021;28;20486;-59
2021/06/15 00:28:40;;;;;;;0.82;0.80;;;25.30;41.40;;;;;;5047793;28;20079;-58
2021/06/15 00:31:07;;;;;;;0.93;0.82;;;25.30;41.50;;;;;;5047894;28;20051;-58
2021/06/15 00:33:34;;;;;;;0.93;0.82;;;25.20;41.40;;;;;;5047917;28;20049;-58
2021/06/15 00:36:02;;;;;;;0.70;0.70;;;25.20;41.40;;;;;;5047400;28;20124;-58
2021/06/15 00:38:29;;;;;;;1.63;1.15;;;25.20;41.40;;;;;;5048169;28;20139;-58
2021/06/15 00:40:56;;;;;;;0.73;0.73;;;25.20;41.40;;;;;;5047190;28;20059;-58
2021/06/15 00:43:23;;;;;;;0.90;0.90;;;25.20;41.40;;;;;;5047688;28;20049;-58
2021/06/15 00:45:50;;;;;;;1.00;0.80;;;25.20;41.40;;;;;;5048090;28;20052;-58
2021/06/15 00:48:33;;;;;;;0.98;0.70;;;25.20;41.40;;;;;;5047792;28;20052;-58
2021/06/15 00:51:02;;;;;;;1.38;1.17;;;25.20;41.40;;;;;;5047252;28;20144;-58
2021/06/15 00:53:31;;;;;;;0.90;0.75;;;25.20;41.40;;;;;;5047836;28;20120;-59
2021/06/15 00:55:58;;;;;;;0.85;0.77;;;25.20;41.40;;;;;;5046652;28;20580;-58
2021/06/15 00:58:25;;;;;;;2.10;0.70;;;25.20;41.40;;;;;;5047539;28;20119;-57
2021/06/15 01:00:53;;;;;;;0.80;0.73;;;25.20;41.40;;;;;;5047527;28;20107;-58
2021/06/15 01:03:23;;;;;;;0.50;0.50;;;25.20;41.50;;;;;;5047156;28;20506;-58
2021/06/15 01:05:50;;;;;;;2.13;0.82;;;25.20;41.50;;;;;;5046549;28;20433;-59
2021/06/15 01:08:48;;;;;;;0.75;0.75;;;25.10;41.40;;;;;;5047594;28;20079;-58
2021/06/15 01:11:50;;;;;;;0.90;0.90;;;25.20;42.10;;;;;;5046672;28;20115;-58
2021/06/15 01:14:57;;;;;;;1.38;0.70;;;25.20;41.50;;;;;;5046566;28;20045;-59
2021/06/15 01:17:35;;;;;;;0.73;0.70;;;25.20;41.50;;;;;;5031864;28;20497;-58
2021/06/15 01:20:22;;;;;;;0.90;0.65;;;25.10;41.50;;;;;;5047121;28;20072;-59
2021/06/15 01:23:14;;;;;;;0.90;0.90;;;25.10;41.50;;;;;;5047001;28;20103;-59
2021/06/15 01:26:03;;;;;;;1.40;0.95;;;25.10;41.50;;;;;;5046485;28;20045;-59
2021/06/15 01:28:55;;;;;;;0.98;0.98;;;25.10;41.50;;;;;;5047410;28;20148;-59
2021/06/15 01:31:47;;;;;;;1.20;0.90;;;25.10;41.50;;;;;;5046817;28;20132;-59
2021/06/15 01:34:33;;;;;;;0.90;0.90;;;25.10;41.60;;;;;;5046926;28;20083;-59
2021/06/15 01:37:27;;;;;;;1.00;0.88;;;25.10;41.50;;;;;;5046965;28;20080;-59
2021/06/15 01:40:12;;;;;;;1.00;0.80;;;25.10;41.50;;;;;;5046432;28;20065;-59
2021/06/15 01:42:48;;;;;;;0.95;0.95;;;25.10;41.50;;;;;;5046818;28;20412;-58
2021/06/15 01:45:26;;;;;;;1.00;0.90;;;25.10;41.50;;;;;;5046047;28;20093;-58
2021/06/15 01:48:18;;;;;;;0.75;0.75;;;25.10;41.50;;;;;;5046847;28;20409;-58
2021/06/15 01:50:47;;;;;;;0.95;0.90;;;25.10;41.50;;;;;;5046296;28;20410;-58
2021/06/15 01:53:16;;;;;;;0.95;0.80;;;25.10;41.50;;;;;;5045888;28;20049;-59
2021/06/15 01:55:53;;;;;;;2.28;1.45;;;25.10;41.50;;;;;;5046077;28;20052;-58
2021/06/15 01:58:25;;;;;;;3.30;1.30;;;25.10;41.50;;;;;;5046425;28;20477;-59
2021/06/15 02:00:54;;;;;;;0.80;0.80;;;25.10;41.60;;;;;;5046361;28;20059;-58
2021/06/15 02:03:23;;;;;;;0.68;0.68;;;25.10;41.60;;;;;;5046283;28;20520;-59
2021/06/15 02:05:54;;;;;;;1.13;0.77;;;25.10;41.60;;;;;;5028902;28;20499;-58
2021/06/15 02:08:27;;;;;;;2.58;0.80;;;25.10;41.60;;;;;;5032927;28;20125;-58
2021/06/15 02:10:56;;;;;;;0.75;0.70;;;25.10;41.60;;;;;;5050345;28;20437;-58
2021/06/15 02:13:27;;;;;;;1.25;1.02;;;25.10;41.60;;;;;;5050093;28;20091;-59
2021/06/15 02:15:57;;;;;;;1.33;1.23;;;25.10;41.60;;;;;;5050101;28;20494;-59
2021/06/15 02:18:26;;;;;;;1.30;1.20;;;25.10;41.70;;;;;;5050230;28;20049;-59
2021/06/15 02:20:57;;;;;;;1.20;1.00;;;25.10;41.70;;;;;;5050620;28;20044;-58
2021/06/15 02:23:26;;;;;;;0.77;0.77;;;25.00;41.60;;;;;;5050321;28;20126;-59
2021/06/15 02:25:57;;;;;;;0.77;0.77;;;25.00;41.60;;;;;;5050498;28;20053;-58
2021/06/15 02:28:25;;;;;;;3.53;1.33;;;25.00;41.60;;;;;;5049862;28;20135;-58
2021/06/15 02:30:53;;;;;;;0.70;0.70;;;25.00;41.60;;;;;;5050060;28;20059;-58
2021/06/15 02:33:24;;;;;;;0.60;0.60;;;25.00;41.60;;;;;;5049801;28;20132;-58
2021/06/15 02:35:57;;;;;;;0.52;0.52;;;25.10;41.70;;;;;;5049039;28;20052;-58
2021/06/15 02:38:34;;;;;;;0.63;0.45;;;25.10;41.60;;;;;;5049975;28;20132;-59
2021/06/15 02:41:05;;;;;;;1.02;0.90;;;25.00;41.60;;;;;;5049899;28;20080;-58
2021/06/15 02:43:35;;;;;;;1.02;0.68;;;25.10;41.70;;;;;;5049937;28;20133;-61
2021/06/15 02:46:04;;;;;;;0.80;0.80;;;25.00;42.10;;;;;;5050042;28;20110;-59
2021/06/15 02:48:33;;;;;;;0.75;0.75;;;25.00;41.60;;;;;;5049331;28;20045;-58
2021/06/15 02:51:03;;;;;;;1.03;0.93;;;25.00;41.90;;;;;;5049978;28;20049;-58
2021/06/15 02:53:47;;;;;;;0.75;0.75;;;25.00;41.60;;;;;;5049809;28;20274;-59
2021/06/15 02:56:21;;;;;;;1.70;0.80;;;25.00;41.60;;;;;;5049514;28;20541;-58
2021/06/15 02:58:48;;;;;;;0.82;0.82;;;25.00;41.60;;;;;;5049689;28;20143;-59
2021/06/15 03:01:15;;;;;;;1.27;0.90;;;25.00;41.60;;;;;;5049839;28;20077;-59
2021/06/15 03:03:43;;;;;;;0.75;0.75;;;25.00;41.70;;;;;;5049391;28;20045;-59
2021/06/15 03:06:10;;;;;;;0.93;0.93;;;25.00;41.60;;;;;;5049615;28;20103;-59
2021/06/15 03:08:39;;;;;;;0.80;0.57;;;25.00;41.60;;;;;;5049729;28;20156;-58
2021/06/15 03:11:06;;;;;;;0.80;0.77;;;25.00;41.60;;;;;;5048808;28;20049;-58
2021/06/15 03:13:54;;;;;;;0.90;0.90;;;25.00;41.60;;;;;;5049149;28;20135;-59
2021/06/15 03:16:25;;;;;;;1.02;0.93;;;25.00;41.60;;;;;;5049209;28;20076;-58
2021/06/15 03:19:13;;;;;;;0.60;0.60;;;25.00;41.60;;;;;;5048583;28;20053;-58
2021/06/15 03:21:48;;;;;;;0.75;0.75;;;25.00;41.60;;;;;;5049283;28;20045;-59
2021/06/15 03:24:20;;;;;;;1.15;0.85;;;25.10;41.60;;;;;;5048584;28;20057;-58
2021/06/15 03:26:59;;;;;;;0.88;0.88;;;25.10;41.50;;;;;;5049385;28;20049;-59
2021/06/15 03:29:30;;;;;;;1.15;0.60;;;25.10;41.50;;;;;;5048736;28;20131;-58
2021/06/15 03:32:02;;;;;;;0.68;0.68;;;25.10;41.40;;;;;;5049441;28;20156;-58
2021/06/15 03:34:31;;;;;;;0.70;0.70;;;25.10;41.40;;;;;;5048952;28;20044;-59
2021/06/15 03:36:59;;;;;;;0.60;0.60;;;25.10;41.40;;;;;;5049404;28;20792;-58
2021/06/15 03:39:30;;;;;;;0.70;0.70;;;25.10;41.30;;;;;;5048266;28;20140;-59
2021/06/15 03:42:01;;;;;;;0.70;0.63;;;25.20;41.30;;;;;;5048812;28;20047;-59
2021/06/15 03:44:28;;;;;;;;;;;25.20;41.30;;;;;;5048983;28;20147;-58
2021/06/15 03:46:58;;;;;;;0.60;0.55;;;25.20;41.30;;;;;;5014097;28;19921;-59
2021/06/15 03:49:26;;;;;;;1.33;0.65;;;25.20;41.20;;;;;;5048770;28;20128;-59
2021/06/15 03:51:59;;;;;;;0.95;0.88;;;25.20;41.20;;;;;;5048396;28;20516;-58
2021/06/15 03:54:28;;;;;;;0.90;0.88;;;25.20;41.20;;;;;;5048019;28;20052;-58
2021/06/15 03:56:59;;;;;;;1.55;0.82;;;25.20;41.10;;;;;;5049074;28;20290;-59
2021/06/15 03:59:30;;;;;;;0.45;0.45;;;25.30;41.10;;;;;;5048065;28;20052;-58
2021/06/15 04:02:00;;;;;;;0.60;0.50;;;25.30;41.10;;;;;;5048527;28;20096;-59
2021/06/15 04:04:34;;;;;;;0.50;0.50;;;25.30;41.10;;;;;;5048087;28;20131;-58
2021/06/15 04:07:03;;;;;;;0.40;0.40;;;25.30;41.00;;;;;;5048438;28;20055;-58
2021/06/15 04:09:38;;;;;;;1.35;0.70;;;25.30;41.00;;;;;;5047746;28;20087;-59
2021/06/15 04:12:06;;;;;;;0.70;0.70;;;25.30;41.00;;;;;;5048160;28;20045;-59
2021/06/15 04:14:36;;;;;;;0.75;0.75;;;25.40;41.00;;;;;;5046586;28;20112;-59
2021/06/15 04:17:06;;;;;;;0.60;0.60;;;25.30;40.90;;;;;;5048565;28;20086;-59
2021/06/15 04:19:44;;;;;;;0.75;0.50;;;25.40;41.00;;;;;;5030705;28;20052;-57
2021/06/15 04:22:14;;;;;;;1.23;0.88;;;25.40;40.90;;;;;;5048176;28;20140;-58
2021/06/15 04:24:47;;;;;;;0.70;0.70;;;25.40;40.90;;;;;;5047399;28;20053;-58
2021/06/15 04:27:21;;;;;;;0.63;0.63;;;25.40;40.80;;;;;;5047883;28;20132;-58
2021/06/15 04:29:49;;;;;;;2.97;0.70;;;25.40;40.80;;;;;;5046492;28;20128;-56
2021/06/15 04:32:20;;;;;;;0.57;0.57;;;25.50;40.80;;;;;;5030384;28;20124;-58
2021/06/15 04:34:58;;;;;;;0.95;0.88;;;25.50;40.70;;;;;;5047080;28;20055;-59
2021/06/15 04:37:26;;;;;;;1.48;0.70;;;25.50;40.60;;;;;;5047528;28;20128;-58
2021/06/15 04:40:03;;;;;;;1.50;0.60;;;25.50;40.60;;;;;;5047331;28;20091;-58
2021/06/15 04:42:59;;;;;;;0.50;0.50;;;25.50;40.50;;;;;;5044571;28;20049;-59
2021/06/15 04:45:31;;;;;;;0.63;0.60;;;25.60;40.50;;;;;;5046721;28;20045;-59
2021/06/15 04:48:04;;;;;;;0.63;0.63;;;25.60;40.50;;;;;;5045520;28;20045;-59
2021/06/15 04:50:32;;;;;;;0.47;0.47;;;25.60;40.50;;;;;;5046759;28;20127;-59
2021/06/15 04:53:03;;;;;;;0.60;0.60;;;25.60;40.40;;;;;;5045437;28;20120;-60
2021/06/15 04:55:35;;;;;;;0.70;0.68;;;25.70;40.40;;;;;;5045828;28;20107;-59
2021/06/15 04:58:04;;;;;;;0.60;0.60;;;25.70;40.30;;;;;;5046483;28;20053;-59
2021/06/15 05:00:31;;;;;;;0.55;0.55;;;25.70;40.30;;;;;;5046161;28;20052;-58
2021/06/15 05:02:59;;;;;;;0.50;0.50;;;25.70;40.20;;;;;;5046353;28;20088;-58
2021/06/15 05:05:26;;;;;;;1.10;0.75;;;25.80;40.20;;;;;;5045972;28;20467;-59
2021/06/15 05:08:00;;;;;;;2.47;0.80;;;25.70;40.10;;;;;;5045896;28;20127;-58
2021/06/15 05:10:29;;;;;;;0.75;0.75;;;25.70;40.10;;;;;;5045426;28;20071;-59
2021/06/15 05:12:57;;;;;;;0.95;0.80;;;25.70;40.20;;;;;;5044875;28;20081;-60
2021/06/15 05:15:31;;;;;;;0.70;0.70;;;25.70;40.10;;;;;;5045298;28;20424;-59
2021/06/15 05:17:59;;;;;;;1.65;0.88;;;25.80;40.20;;;;;;5042104;28;20057;-59
2021/06/15 05:20:26;;;;;;;0.73;0.60;;;25.80;40.20;;;;;;5043717;28;20045;-58
2021/06/15 05:23:02;;;;;;;1.63;0.90;;;25.80;40.20;;;;;;5042908;28;20072;-59
2021/06/15 05:25:31;;;;;;;0.60;0.60;;;25.80;40.30;;;;;;5028188;28;20077;-59
2021/06/15 05:27:58;;;;;;;0.80;0.80;;;25.80;40.30;;;;;;5021408;28;20049;-63
2021/06/15 05:30:27;;;;;;;1.00;0.70;;;25.80;40.40;;;;;;5044076;28;20486;-60
2021/06/15 05:32:55;;;;;;;0.65;0.65;;;25.80;40.30;;;;;;5039455;28;20044;-59
2021/06/15 05:35:23;;;;;;;0.88;0.88;;;25.90;40.30;;;;;;5037487;28;20055;-59
2021/06/15 05:37:51;;;;;;;1.75;1.05;;;25.90;40.20;;;;;;5039612;28;20048;-59
2021/06/15 05:40:18;;;;;;;1.83;1.30;;;25.90;40.10;;;;;;5039972;28;20076;-59
2021/06/15 05:42:46;;;;;;;1.67;1.40;;;25.90;40.00;;;;;;5040646;28;20135;-60
2021/06/15 05:45:15;;;;;;;5.15;1.83;;;25.90;39.80;;;;;;5040882;28;20056;-60
2021/06/15 05:47:44;;;;;;;3.10;2.00;;;25.90;39.40;;;;;;5039558;28;20045;-60
2021/06/15 05:50:13;;;;;;;3.20;2.10;;;25.90;39.30;;;;;;5022246;28;20516;-60
2021/06/15 05:52:41;;;;;;;5.93;2.25;;;25.90;39.30;;;;;;5034474;28;202264;-59
2021/06/15 05:55:10;;;;;;;3.47;2.22;;;25.90;39.10;;;;;;5039040;28;20048;-59
2021/06/15 05:57:38;;;;;;;6.93;2.10;;;25.90;38.70;;;;;;5035939;28;20048;-59
2021/06/15 06:00:09;;;;;;;4.35;2.55;;;25.80;38.70;;;;;;5042505;28;20464;-61
2021/06/15 06:02:36;;;;;;;3.13;2.40;;;25.80;38.80;;;;;;5039134;28;20072;-60
2021/06/15 06:08:06;;;;;;;8.80;3.13;;;25.60;38.20;;;;;;5025338;28;20048;-60
2021/06/15 06:10:36;;;;;;;7.50;2.90;;;25.50;38.30;;;;;;5038469;28;20388;-60
2021/06/15 06:13:05;;;;;;;10.40;2.97;;;25.40;38.60;;;;;;5032652;28;20049;-60
2021/06/15 06:15:34;;;;;;;11.00;2.55;;;25.40;38.80;;;;;;5037377;28;20045;-60
2021/06/15 06:18:08;;;;;;;5.53;2.78;;;25.30;38.90;;;;;;5034290;28;20048;-61
2021/06/15 06:20:38;;;;;;;3.20;2.40;;;25.20;39.00;;;;;;5033335;28;20133;-61
2021/06/15 06:23:06;;;;;;;5.57;2.60;;;25.20;39.10;;;;;;5032889;28;20248;-60
2021/06/15 06:25:33;;;;;;;2.67;2.45;;;25.10;39.20;;;;;;5039213;28;20124;-61
2021/06/15 06:28:03;;;;;;;3.60;2.42;;;25.00;39.00;;;;;;5036275;28;20052;-60
2021/06/15 06:30:31;;;;;;;6.73;2.63;;;24.90;38.90;;;;;;5034275;28;20068;-60
2021/06/15 06:32:58;;;;;;;4.35;3.10;;;24.90;39.10;;;;;;5036011;28;20132;-60
2021/06/15 06:35:26;;;;;;;10.90;3.40;;;24.80;39.10;;;;;;5034693;28;20529;-59
2021/06/15 06:37:53;;;;;;;6.88;3.63;;;24.80;39.20;;;;;;5037670;28;20053;-59
2021/06/15 06:40:21;;;;;;;6.75;2.92;;;24.80;39.40;;;;;;5034311;28;20068;-59
2021/06/15 06:42:49;;;;;;;5.53;2.78;;;24.80;39.40;;;;;;5036487;28;20117;-60
2021/06/15 06:45:16;;;;;;;6.07;3.22;;;24.80;39.80;;;;;;5039854;28;20136;-59
2021/06/15 06:47:43;;;;;;;5.53;3.42;;;24.80;39.30;;;;;;5040774;28;20062;-60
2021/06/15 06:50:11;;;;;;;4.60;2.80;;;24.90;39.30;;;;;;5039818;28;20807;-59
2021/06/15 06:52:38;;;;;;;5.45;2.90;;;24.90;38.60;;;;;;5040649;28;20127;-60
2021/06/15 06:55:07;;;;;;;6.80;3.40;;;24.90;38.30;;;;;;5047253;28;20063;-60
2021/06/15 06:57:34;;;;;;;4.32;2.78;;;24.90;38.20;;;;;;5040932;28;20141;-59
2021/06/15 07:00:01;;;;;;;4.05;2.72;;;24.90;38.10;;;;;;5037001;28;20140;-58
2021/06/15 07:02:28;;;;;;;4.18;2.83;;;24.90;38.20;;;;;;5044372;28;20051;-59
2021/06/15 07:04:55;;;;;;;4.90;3.20;;;24.90;38.10;;;;;;5030018;28;20067;-59
2021/06/15 07:07:23;;;;;;;4.75;3.53;;;24.80;37.60;;;;;;5043870;28;20148;-59
2021/06/15 07:09:50;;;;;;;9.98;3.20;;;24.80;37.50;;;;;;5042408;28;20044;-60
2021/06/15 07:12:18;;;;;;;3.58;2.92;;;24.80;37.20;;;;;;5044801;28;20136;-60
2021/06/15 07:14:45;;;;;;;6.00;3.22;;;24.80;37.30;;;;;;5027464;28;20083;-60
2021/06/15 07:17:12;;;;;;;5.55;2.95;;;24.80;37.90;;;;;;5046212;28;20563;-60
2021/06/15 07:19:39;;;;;;;5.63;3.10;;;24.70;38.50;;;;;;5045026;28;20143;-60
2021/06/15 07:22:07;;;;;;;6.70;3.22;;;24.70;39.10;;;;;;5040262;28;20084;-60
2021/06/15 07:24:35;;;;;;;3.38;2.78;;;24.60;39.40;;;;;;5042952;28;20447;-59
2021/06/15 07:27:02;;;;;;;6.10;2.83;;;24.50;39.70;;;;;;5041933;28;20135;-60
2021/06/15 07:29:29;;;;;;;3.17;2.53;;;24.50;40.10;;;;;;5038439;28;20041;-59
2021/06/15 07:31:57;;;;;;;3.85;2.88;;;24.30;40.40;;;;;;5038749;28;20099;-59
2021/06/15 07:34:24;;;;;;;5.47;2.80;;;24.20;40.80;;;;;;5045215;28;20055;-59
2021/06/15 07:36:51;;;;;;;3.65;2.83;;;24.10;41.20;;;;;;5043656;28;20184;-61
2021/06/15 07:39:19;;;;;;;5.30;3.15;;;24.00;41.80;;;;;;5042360;28;20056;-59
2021/06/15 07:41:46;;;;;;;5.78;2.95;;;23.90;42.00;;;;;;5044100;28;20067;-59
2021/06/15 07:44:15;;;;;;;5.35;3.13;;;23.70;42.20;;;;;;5044949;28;20071;-59
2021/06/15 07:46:42;;;;;;;3.85;2.80;;;23.60;42.60;;;;;;5042908;28;20044;-59
2021/06/15 07:49:09;;;;;;;3.47;2.97;;;23.50;42.90;;;;;;5044550;28;20060;-59
2021/06/15 07:51:40;;;;;;;4.47;3.17;;;23.50;43.20;;;;;;5041166;28;20107;-59
2021/06/15 07:54:27;;;;;;;3.35;2.50;;;23.40;43.60;;;;;;5043472;28;20075;-60
2021/06/15 07:56:55;;;;;;;5.35;3.33;;;23.30;44.10;;;;;;5042418;28;20128;-60
2021/06/15 07:59:22;;;;;;;6.43;3.17;;;23.20;44.10;;;;;;5044145;28;20080;-59
2021/06/15 08:01:49;;;;;;;5.10;3.47;;;23.20;44.20;;;;;;5042294;28;20120;-58
2021/06/15 08:04:16;;;;;;;6.57;3.25;;;23.10;44.50;;;;;;5042907;28;20079;-60
2021/06/15 08:06:44;;;;;;;6.35;3.50;;;23.10;45.20;;;;;;5041905;28;20056;-60
2021/06/15 08:09:11;;;;;;;6.45;3.60;;;23.10;46.00;;;;;;5043354;28;20079;-60
2021/06/15 08:11:38;;;;;;;3.88;3.10;;;23.10;45.70;;;;;;5026533;28;20047;-59
2021/06/15 08:14:05;;;;;;;7.65;4.10;;;23.10;46.00;;;;;;5040935;28;20056;-58
2021/06/15 08:16:33;;;;;;;4.32;3.72;;;23.10;46.30;;;;;;5043471;28;20044;-64
2021/06/15 08:19:00;;;;;;;8.43;4.22;;;23.10;46.40;;;;;;5041079;28;20412;-64
2021/06/15 08:21:27;;;;;;;6.03;4.13;;;23.10;46.50;;;;;;5037667;28;20485;-59
2021/06/15 08:23:54;;;;;;;10.35;4.28;;;23.10;46.60;;;;;;5043021;28;20128;-58
2021/06/15 08:26:29;;;;;;;7.25;3.50;;;23.10;46.70;;;;;;5042638;28;20045;-59
2021/06/15 08:28:56;;;;;;;5.72;3.88;;;23.10;46.80;;;;;;5042184;28;20095;-59
2021/06/15 08:31:24;;;;;;;8.25;4.47;;;23.10;46.90;;;;;;5039638;28;20094;-59
2021/06/15 08:33:51;;;;;;;8.48;4.72;;;23.10;46.90;;;;;;5041702;28;20044;-59
2021/06/15 08:36:18;;;;;;;7.68;4.40;;;23.10;46.80;;;;;;5042548;28;20135;-59
2021/06/15 08:38:45;;;;;;;10.90;4.25;;;23.10;46.70;;;;;;5041871;28;20140;-59
2021/06/15 08:41:18;;;;;;;9.07;4.68;;;23.10;46.70;;;;;;5023901;28;20142;-59
2021/06/15 08:43:46;;;;;;;12.63;4.88;;;23.10;46.70;;;;;;5039097;28;20041;-58
2021/06/15 08:46:15;;;;;;;10.45;5.18;;;23.10;46.90;;;;;;5041497;28;20124;-58
2021/06/15 08:48:42;;;;;;;9.63;5.13;;;23.10;47.10;;;;;;5043329;28;20045;-61
2021/06/15 08:51:09;;;;;;;13.05;4.75;;;23.10;47.20;;;;;;5040998;28;20140;-60
2021/06/15 08:53:37;;;;;;;9.60;4.57;;;23.10;47.40;;;;;;5040822;28;20040;-59
2021/06/15 08:56:22;;;;;;;7.40;4.35;;;23.10;47.50;;;;;;5036803;28;20077;-58
2021/06/15 08:59:14;;;;;;;9.50;5.40;;;23.10;47.40;;;;;;5033652;28;20179;-59
2021/06/15 09:01:43;;;;;;;7.80;4.57;;;23.10;47.30;;;;;;5036129;28;20139;-58
2021/06/15 09:04:10;;;;;;;8.70;4.93;;;23.20;47.50;;;;;;5038107;28;20053;-58
2021/06/15 09:06:37;;;;;;;8.23;5.10;;;23.20;47.60;;;;;;5041735;28;20137;-58
2021/06/15 09:09:05;;;;;;;8.13;4.60;;;23.20;47.60;;;;;;5040479;28;20148;-58
2021/06/15 09:11:53;;;;;;;7.97;4.80;;;23.20;47.70;;;;;;5032976;28;20136;-58
2021/06/15 09:14:42;;;;;;;7.78;4.97;;;23.20;47.80;;;;;;5037464;28;20083;-58
2021/06/15 09:17:12;;;;;;;9.52;4.75;;;23.20;47.90;;;;;;5038343;28;20064;-59
2021/06/15 09:19:41;;;;;;;9.07;5.13;;;23.20;47.90;;;;;;5041738;28;20506;-59
2021/06/15 09:22:34;;;;;;;7.45;4.65;;;23.20;48.00;;;;;;5039269;28;20109;-60
2021/06/15 09:25:05;;;;;;;7.80;5.20;;;23.20;48.00;;;;;;5041354;28;20049;-60
2021/06/15 09:27:35;;;;;;;13.40;5.80;;;23.20;48.00;;;;;;5039208;28;20048;-62
2021/06/15 09:30:10;;;;;;;10.63;4.57;;;23.20;48.10;;;;;;5039605;28;20083;-61
2021/06/15 09:32:41;;;;;;;8.07;5.20;;;23.10;48.10;;;;;;5040466;28;20131;-62
2021/06/15 09:35:21;;;;;;;6.70;4.78;;;23.10;48.20;;;;;;5041731;28;20272;-60
2021/06/15 09:38:00;;;;;;;11.63;5.20;;;23.20;48.10;;;;;;5041724;28;20131;-59
2021/06/15 09:40:30;;;;;;;9.82;5.60;;;23.20;48.10;;;;;;5042175;28;20056;-60
2021/06/15 09:43:10;;;;;;;9.93;4.55;;;23.20;48.00;;;;;;5041559;28;20045;-60
2021/06/15 09:45:43;;;;;;;7.20;5.40;;;23.20;48.00;;;;;;5039355;28;20044;-59
2021/06/15 09:48:34;;;;;;;14.00;5.18;;;23.20;48.00;;;;;;5042839;28;20049;-59
2021/06/15 09:51:11;;;;;;;7.90;5.30;;;23.20;47.90;;;;;;5040003;28;20073;-59
2021/06/15 09:53:44;;;;;;;9.48;5.38;;;23.20;47.90;;;;;;5040883;28;20485;-60
2021/06/15 09:56:14;;;;;;;9.30;4.85;;;23.30;47.90;;;;;;5038820;28;20068;-59
2021/06/15 09:58:57;;;;;;;9.20;5.07;;;23.20;48.10;;;;;;5037469;28;20045;-61
2021/06/15 10:01:42;;;;;;;8.52;5.07;;;23.30;48.70;;;;;;5041967;28;20097;-61
2021/06/15 10:04:23;;;;;;;14.18;5.32;;;23.30;48.60;;;;;;5038043;28;20858;-60
2021/06/15 10:06:55;;;;;;;10.50;5.05;;;23.30;48.70;;;;;;5040019;28;20056;-57
2021/06/15 10:09:24;;;;;;;9.93;4.70;;;23.30;49.20;;;;;;5040886;28;20136;-57
2021/06/15 10:11:53;;;;;;;11.13;5.70;;;23.30;49.30;;;;;;5040907;28;20053;-58
2021/06/15 10:14:22;;;;;;;12.32;6.13;;;23.20;49.30;;;;;;5041233;28;20049;-60
2021/06/15 10:16:50;;;;;;;8.60;5.07;;;23.20;49.40;;;;;;5040509;28;20068;-58
2021/06/15 10:19:18;;;;;;;10.18;5.47;;;23.20;49.10;;;;;;5039325;28;20060;-60
2021/06/15 10:21:45;;;;;;;8.63;5.15;;;23.20;49.20;;;;;;5041042;28;20084;-59
2021/06/15 10:24:19;;;;;;;10.40;5.00;;;23.20;49.30;;;;;;5040634;28;20513;-59
2021/06/15 10:27:04;;;;;;;12.73;6.15;;;23.20;49.40;;;;;;5038231;28;20045;-58
2021/06/15 10:29:33;;;;;;;10.65;5.35;;;23.20;49.30;;;;;;5046002;28;20053;-60
2021/06/15 10:32:13;;;;;;;8.80;6.10;;;23.20;49.20;;;;;;5045914;28;20437;-60
2021/06/15 10:34:58;;;;;;;12.05;5.13;;;23.20;48.90;;;;;;5045448;28;20096;-60
2021/06/15 10:37:46;;;;;;;11.80;5.22;;;23.20;48.80;;;;;;5045321;28;20151;-60
2021/06/15 10:40:37;;;;;;;12.48;5.85;;;23.20;48.80;;;;;;5043661;28;20591;-60
2021/06/15 10:43:17;;;;;;;8.82;5.82;;;23.20;49.10;;;;;;5040378;28;20040;-60
2021/06/15 10:45:47;;;;;;;10.50;5.75;;;23.20;49.10;;;;;;5044147;28;20540;-61
2021/06/15 10:48:28;;;;;;;13.48;5.68;;;23.20;49.20;;;;;;5043882;28;20041;-61
2021/06/15 10:50:58;;;;;;;9.25;5.50;;;23.10;49.40;;;;;;5044269;28;20088;-59
2021/06/15 10:53:40;;;;;;;11.82;5.50;;;23.20;49.60;;;;;;5045966;28;20159;-57
2021/06/15 10:56:11;;;;;;;10.48;5.13;;;23.10;49.40;;;;;;5039505;28;20053;-59
2021/06/15 10:58:56;;;;;;;14.73;6.68;;;23.20;49.50;;;;;;5043741;28;20087;-58
2021/06/15 11:01:26;;;;;;;7.78;5.95;;;23.20;49.60;;;;;;5044238;28;20049;-58
2021/06/15 11:04:02;;;;;;;13.73;5.88;;;23.20;49.60;;;;;;5042200;28;20053;-57
2021/06/15 11:06:52;;;;;;;8.25;5.25;;;23.20;49.50;;;;;;5041329;28;20448;-57
2021/06/15 11:09:25;;;;;;;12.47;5.63;;;23.20;49.50;;;;;;5041899;28;20081;-61
2021/06/15 11:12:16;;;;;;;11.75;5.30;;;23.20;49.50;;;;;;5041895;28;20084;-60
2021/06/15 11:15:08;;;;;;;6.93;5.30;;;23.20;49.40;;;;;;5046951;28;20053;-59
2021/06/15 11:17:51;;;;;;;11.30;6.18;;;23.20;49.60;;;;;;5041906;28;20545;-61
2021/06/15 11:20:27;;;;;;;8.10;5.00;;;23.20;49.50;;;;;;5043278;28;20047;-61
2021/06/15 11:23:25;;;;;;;10.63;4.80;;;23.20;49.50;;;;;;5038786;28;20064;-61
2021/06/15 11:26:00;;;;;;;6.97;4.75;;;23.20;49.60;;;;;;5033457;28;20128;-61
2021/06/15 11:28:39;;;;;;;9.50;5.28;;;23.20;49.60;;;;;;5037564;28;20063;-59
2021/06/15 11:31:26;;;;;;;9.35;5.85;;;23.30;49.70;;;;;;5042292;28;20059;-60
2021/06/15 11:34:15;;;;;;;9.25;5.18;;;23.30;49.70;;;;;;5041131;28;20128;-61
2021/06/15 11:36:50;;;;;;;10.98;5.88;;;23.30;49.60;;;;;;5040595;28;20076;-60
2021/06/15 11:39:29;;;;;;;10.20;5.25;;;23.30;49.70;;;;;;5043720;28;20053;-59
2021/06/15 11:42:24;;;;;;;8.90;5.22;;;23.30;49.80;;;;;;5045142;28;20147;-58
2021/06/15 11:45:01;;;;;;;8.45;5.25;;;23.30;49.90;;;;;;5038247;28;20103;-59
2021/06/15 11:47:36;;;;;;;6.60;4.93;;;23.30;49.90;;;;;;5037177;28;20084;-60
2021/06/15 11:50:20;;;;;;;9.32;5.30;;;23.30;49.80;;;;;;5041858;28;20481;-61
2021/06/15 11:52:59;;;;;;;10.73;4.93;;;23.30;49.70;;;;;;5043336;28;20072;-58
2021/06/15 11:55:36;;;;;;;10.15;4.35;;;23.30;49.70;;;;;;5038955;28;20080;-55
2021/06/15 11:58:16;;;;;;;7.55;4.93;;;23.30;49.90;;;;;;5038990;28;20819;-58
2021/06/15 12:00:47;;;;;;;8.05;4.85;;;23.30;50.00;;;;;;5043747;28;20124;-59
2021/06/15 12:03:19;;;;;;;9.65;3.95;;;23.30;50.00;;;;;;5044570;28;20052;-58
2021/06/15 12:05:50;;;;;;;8.98;4.68;;;23.30;50.10;;;;;;5041380;28;20565;-58
2021/06/15 12:08:18;;;;;;;8.50;4.75;;;23.30;50.30;;;;;;5038973;28;20553;-59
2021/06/15 12:10:46;;;;;;;7.10;4.43;;;23.40;50.60;;;;;;5038325;28;20049;-58
2021/06/15 12:13:25;;;;;;;6.63;4.00;;;23.30;50.70;;;;;;5042549;28;20795;-61
2021/06/15 12:16:16;;;;;;;7.32;3.90;;;23.40;50.80;;;;;;5042905;28;20083;-58
2021/06/15 12:18:49;;;;;;;10.02;4.97;;;23.40;50.70;;;;;;5041451;28;20068;-61
2021/06/15 12:21:28;;;;;;;8.07;4.45;;;23.40;50.90;;;;;;5041298;28;20140;-60
2021/06/15 12:23:59;;;;;;;7.55;4.55;;;23.40;50.90;;;;;;5041704;28;20076;-62
2021/06/15 12:26:33;;;;;;;8.98;4.85;;;23.40;50.90;;;;;;5041960;28;20045;-59
2021/06/15 12:29:03;;;;;;;7.82;4.32;;;23.40;51.00;;;;;;5040339;28;20048;-61
2021/06/15 12:31:36;;;;;;;6.22;4.45;;;23.40;50.90;;;;;;5039684;28;20144;-60
2021/06/15 12:34:06;;;;;;;6.35;4.05;;;23.50;51.00;;;;;;5042432;28;20492;-60
2021/06/15 12:36:36;;;;;;;7.32;4.00;;;23.50;51.00;;;;;;5039196;28;20767;-61
2021/06/15 12:39:21;;;;;;;10.98;4.95;;;23.50;50.70;;;;;;5035130;28;20077;-63
2021/06/15 12:41:51;;;;;;;9.75;4.45;;;23.50;50.50;;;;;;5043011;28;20055;-61
2021/06/15 12:44:24;;;;;;;6.93;4.18;;;23.50;50.40;;;;;;5042672;28;20052;-61
2021/06/15 12:47:02;;;;;;;10.05;4.53;;;23.50;50.00;;;;;;5039395;28;20139;-61
2021/06/15 12:49:29;;;;;;;10.90;4.05;;;23.50;49.80;;;;;;5041220;28;20067;-61
2021/06/15 12:52:07;;;;;;;4.85;3.72;;;23.50;49.90;;;;;;5040224;28;20091;-61
2021/06/15 12:54:38;;;;;;;8.07;4.72;;;23.50;49.80;;;;;;5040642;28;20057;-61
2021/06/15 12:57:07;;;;;;;9.13;4.88;;;23.50;49.70;;;;;;5040475;28;20036;-61
2021/06/15 12:59:37;;;;;;;5.75;4.20;;;23.50;49.70;;;;;;5041152;28;20573;-61
2021/06/15 13:02:19;;;;;;;5.40;3.88;;;23.50;49.60;;;;;;5040234;28;20045;-58
2021/06/15 13:04:53;;;;;;;11.82;4.28;;;23.50;49.30;;;;;;5042613;28;20048;-58
2021/06/15 13:07:29;;;;;;;6.72;3.78;;;23.50;49.40;;;;;;5039703;28;20499;-58
2021/06/15 13:12:32;;;;;;;7.97;3.72;;;23.50;49.00;;;;;;5040811;28;20045;-60
2021/06/15 13:15:05;;;;;;;6.53;4.00;;;23.50;48.80;;;;;;5043573;28;20049;-62
2021/06/15 13:17:34;;;;;;;6.95;3.80;;;23.50;48.60;;;;;;5038776;28;20135;-58
2021/06/15 13:20:14;;;;;;;6.75;3.95;;;23.50;48.40;;;;;;5039739;28;20049;-61